Details From KBUR - BOB HOPE
To KWJF - General Wm J Fox Airfield
Flight Number -
Tags generated
Created
Modified
Stats Distance 33 nm / 62 km
Max Altitude 2,900 ft / 884 m
Waypoints 3
Social Downloads 1
Likes 0
Share VATSIM

Download

Looking for another format? Having issues loading an existing format? Contact us
Advertisement - Login to hide

Notes

Basic altitude profile: - Ascent Rate: 2500ft/min - Ascent Speed: 250kts - Cruise Altitude: 8000ft - Cruise Speed: 200kts - Descent Rate: 1500ft/min - Descent Speed: 250kts Options: - Use NATs: no - Use PACOTS: no - Use low airways: yes - Use high airways: no

Route

KBUR BOGET KWJF

ID Type Via Altitude (ft/m) Position (lat/lon) Dist (leg/tot) Name
O KBUR APT - 0 / 0 34.20048 / -118.35877 - / 0 nm BOB HOPE
BOGET FIX - 2,900 / 884 34.51421 / -118.25151 19 / 19 nm
O KWJF APT - 0 / 0 34.74105 / -118.21864 13 / 33 nm General Wm J Fox Airfield

Altitude Profile

Advertisement - Login to hide

KBUR

Details ICAO KBUR (BUR)
Name BOB HOPE
Region United States
Timezone America/Los_Angeles (UTC-7.0)
Stats Elevation 777 ft / 237 m (AMSL)
Location 34.200700° -118.359000°
Runways 2
Magnetic Variation 11.972° E

METAR

KBUR 200853Z 00000KT 10SM CLR 18/02 A2997 RMK AO2 SLP137 T01780022 55003 $

Decode

TAF

TAF KBUR 200520Z 2006/2106 02007KT P6SM SKC FM202000 16010KT P6SM SKC FM210300 VRB03KT P6SM SCT120

Decode

Departure Runways

ID Width Length Bearing (true/mag) Surface Threshold Overrun Markings Lighting
08 151 ft / 46 m 5,826 ft / 1,776 m 90.93° / 78.95° ASPHALT 0 ft / 0 m 259 ft / 79 m PREC-APP EDGE THRESHOLD MALSR
15 151 ft / 46 m 6,962 ft / 2,122 m 167.12° / 155.15° ASPHALT 909 ft / 277 m 203 ft / 62 m APP EDGE THRESHOLD REIL-OMNI
26 151 ft / 46 m 5,826 ft / 1,776 m 270.94° / 258.97° ASPHALT 0 ft / 0 m 243 ft / 74 m APP EDGE THRESHOLD REIL-OMNI
33 151 ft / 46 m 6,962 ft / 2,122 m 347.12° / 335.15° ASPHALT 351 ft / 107 m 0 ft / 0 m APP EDGE THRESHOLD REIL-OMNI

KWJF

Details ICAO KWJF (WJF)
Name General Wm J Fox Airfield
Region United States
Timezone America/Los_Angeles (UTC-7.0)
Stats Elevation 2,351 ft / 717 m (AMSL)
Location 34.741000° -118.219000°
Runways 1
Magnetic Variation 12.049° E

METAR

KWJF 200856Z AUTO 27006KT 10SM CLR 07/M07 A3010 RMK AO2 SLP186 T00671072 58003

Decode

TAF

TAF KWJF 200520Z 2006/2106 VRB03KT P6SM SKC FM201800 07013KT P6SM SKC FM210100 11007KT P6SM SCT120 FM210400 VRB03KT P6SM SCT120

Decode

Destination Runways

ID Width Length Bearing (true/mag) Surface Threshold Overrun Markings Lighting
06 151 ft / 46 m 7,189 ft / 2,191 m 71.98° / 59.93° ASPHALT 0 ft / 0 m 200 ft / 61 m APP EDGE THRESHOLD REIL-OMNI
24 151 ft / 46 m 7,189 ft / 2,191 m 252.00° / 239.95° ASPHALT 0 ft / 0 m 200 ft / 61 m APP EDGE THRESHOLD REIL-OMNI

Popular Alternatives